Waldenburg, Arkansas
Current Conditions -  °F | °C
As of 12:56 AM on Monday 22 Dec 2014 (Local Time) from KM19 Reporting Station
Overcast Overcast  
Wind Chill: 43°   Ceiling: 8000
Heat Index: 43°   Visibility: 10mi
Dew Point: 39°   Wind: 0mph
Humidity: 85%   Direction: NA
Pressure: 29.89"   Gusts: NA
Location:  35.57°N, 90.93°W
Report Text: KM19 220656Z AUTO 00000KT 10SM OVC080 06/04 A2989 RMK AO2 T00610038 SLP120
Loading
Personal Weather Stations






























Interactive Weather Map New forecast layout! Learn more

10-Day Weather Forecast

Advertisements
Track Severe Weather on mobile